Crooked Creek Research Lab Weather observations

Data are for 10 minute period ending at time listed.
 Day   Time    Ave.   Ave.  Ave.  Vector   Max.   Stn.    Total    Solar   Ave.   Snow 
  of    of     Air    Rel.  Wind   Wind    Wind   Baro.  Precip.   Rad.    Soil   Depth
Year   Day     Temp.  Hum.  Speed  Dir.    Gust   Pres.                    Temp.       
2014   (PST)    F      %     mph   deg.    mph     mb.     in.     W/m2     F      in. 
---------------------------------------------------------------------------------------  
 303    0:00   25.3    60    0.6   132      2.8   706.8    0.00       0    999.0    -0.4
 303    0:10   25.0    61    1.0   151      3.1   706.8    0.00       0    999.0    -0.5
 303    0:20   24.9    62    0.6   133      2.9   706.8    0.00       0    999.0    -0.4
 303    0:30   24.5    64    0.8   134      2.5   706.8    0.00       0    999.0    -0.4
 303    0:40   24.4    65    0.7   227      2.9   706.8    0.00       0    999.0    -0.5
 303    0:50   24.5    65    0.6   213      3.7   706.9    0.00       0    999.0    -0.5
 303    1:00   24.3    65    0.8   222      4.1   706.6    0.00       0    999.0    -0.4
 303    1:10   24.3    66    0.7   161      1.3   706.7    0.00       0    999.0    -0.5
 303    1:20   24.6    65    0.2   206      1.8   706.6    0.00       0    999.0    -0.5
 303    1:30   24.7    65    0.8   139      2.8   706.6    0.00       0    999.0    -0.5
 303    1:40   24.4    64    0.5   165      2.5   706.7    0.00       0    999.0    -0.5
 303    1:50   24.5    64    0.7   166      2.4   706.6    0.00       0    999.0    -0.5
 303    2:00   24.2    65    1.7   221      4.4   706.6    0.00       0    999.0    -0.6
 303    2:10   24.3    65    1.9   146      3.2   706.5    0.00       0    999.0    -0.6
 303    2:20   24.1    66    0.8   240      3.7   706.4    0.00       0    999.0    -0.4
 303    2:30   23.8    67    0.5   238      2.5   706.4    0.00       0    999.0    -0.6
 303    2:40   23.3    66    2.0   238      4.4   706.3    0.00       0    999.0    -0.5
 303    2:50   23.8    66    0.9   220      2.9   706.3    0.00       0    999.0    -0.6
 303    3:00   24.4    65    1.1   210      4.3   706.3    0.00       0    999.0    -0.5
 303    3:10   24.7    65    0.7   216      3.5   706.2    0.00       0    999.0    -0.4
 303    3:20   23.9    65    0.4   240      1.8   706.2    0.00       0    999.0    -0.6
 303    3:30   23.3    69    0.8   150      2.9   706.2    0.00       0    999.0    -0.5
 303    3:40   24.7    66    1.5   144      2.9   706.2    0.00       0    999.0    -0.4
 303    3:50   26.1    62    4.6   228      8.0   706.2    0.00       0    999.0    -0.4
 303    4:00   26.7    59    3.0   217      6.9   706.3    0.00       0    999.0    -0.6
 303    4:10   26.2    60    4.3   214      7.8   706.3    0.00       0    999.0    -0.5
 303    4:20   26.7    60    2.1   218      7.2   706.5    0.00       0    999.0    -0.6
 303    4:30   25.0    62    1.6   208      4.2   706.5    0.00       0    999.0    -0.6
 303    4:40   24.8    64    0.7   191      3.0   706.3    0.00       0    999.0    -0.5
 303    4:50   25.6    63    1.2   208      4.7   706.4    0.00       0    999.0    -0.5
 303    5:00   26.0    61    0.8   218      4.7   706.5    0.00       0    999.0    -0.4
 303    5:10   26.4    61    1.1   145      3.1   706.7    0.00       0    999.0    -0.5
 303    5:20   25.5    62    1.8   154      3.8   706.7    0.00       0    999.0    -0.6
 303    5:30   25.2    62    2.3   129      5.3   706.7    0.00       0    999.0    -0.5
 303    5:40   24.5    65    0.3   128      1.5   706.8    0.00       0    999.0    -0.5
 303    5:50   24.2    65    1.1   123      3.8   706.6    0.00       1    999.0    -0.4
 303    6:00   24.0    65    0.9   242      2.9   706.7    0.00       2    999.0    -0.5
 303    6:10   24.4    65    0.7   236      3.0   706.6    0.00       5    999.0    -0.5
 303    6:20   23.6    66    0.9   238      3.5   706.6    0.00       7    999.0    -0.5
 303    6:30   23.7    66    1.1   232      4.5   706.8    0.00       9    999.0    -0.4
 303    6:40   24.1    66    0.4   233      2.0   706.8    0.00      11    999.0    -0.4
 303    6:50   25.1    65    0.4   223      2.4   706.8    0.00      13    999.0    -0.4
 303    7:00   25.6    65    0.3   224      2.0   706.8    0.00      14    999.0    -0.4
 303    7:10   28.1    62    0.7   159      2.6   707.0    0.00      15    999.0    -0.4
 303    7:20   30.6    57    1.6   141      2.9   707.1    0.00     135    999.0    -0.5
 303    7:30   36.0    48    1.3   126      3.5   707.3    0.00     254    999.0    -0.6
 303    7:40   40.7    39    1.4   134      3.7   707.2    0.00     285    999.0    -0.5
 303    7:50   45.1    34    1.7   143      3.5   707.4    0.00     315    999.0    -0.6
 303    8:00   46.9    32    1.5   148      4.5   707.5    0.00     345    999.0    -0.6
 303    8:10   48.2    30    2.1   213      5.9   707.6    0.00     373    999.0    -0.7
 303    8:20   48.8    29    2.0   212      5.5   707.6    0.00     401    999.0    -0.5
 303    8:30   48.6    30    2.8   227      5.6   707.5    0.00     427    999.0    -0.6
 303    8:40   49.5    29    2.2   211      5.6   707.7    0.00     451    999.0    -0.5
 303    8:50   50.7    28    2.4   172     11.2   707.6    0.00     475    999.0    -0.5
 303    9:00   50.9    28    3.8   126      8.6   707.6    0.00     497    999.0    -0.5
 303    9:10   51.0    28    3.3   156      8.6   707.9    0.00     519    999.0    -0.5
 303    9:20   52.4    26    3.0   155      8.6   707.7    0.00     539    999.0    -0.5
 303    9:30   52.2    26    4.0   137     10.7   707.8    0.00     557    999.0    -0.5
 303    9:40   52.4    26    3.7   142      8.5   707.9    0.00     574    999.0    -0.5
 303    9:50   52.1    27    3.8   143      9.5   707.9    0.00     589    999.0    -0.5
 303   10:00   52.2    27    4.1   132      9.0   707.9    0.00     603    999.0    -0.5
 303   10:10   52.0    27    4.5   159     10.8   707.9    0.00     615    999.0    -0.5
 303   10:20   52.4    26    4.1   154     13.2   707.9    0.00     626    999.0    -0.4
 303   10:30   52.3    25    5.9   141     11.6   707.9    0.00     636    999.0    -0.4
 303   10:40   52.5    25    4.1   159     13.5   707.9    0.00     645    999.0    -0.4
 303   10:50   52.3    25    5.6   134     12.1   707.9    0.00     651    999.0    -0.4
 303   11:00   52.5    25    4.2   188     10.4   707.9    0.00     655    999.0    -0.5
 303   11:10   52.5    24    4.9   143     10.7   707.7    0.00     659    999.0    -0.3
 303   11:20   52.5    24    5.7   138     11.8   707.7    0.00     660    999.0    -0.3
 303   11:30   52.6    24    6.5   139     13.8   707.5    0.00     659    999.0    -0.3
 303   11:40   53.0    23    5.9   137     15.1   707.5    0.00     658    999.0    -0.3
 303   11:50   52.4    24    6.3   131     12.0   707.4    0.00     654    999.0    -0.4
 303   12:00   53.2    23    5.6   138     11.0   707.2    0.00     648    999.0    -0.3
 303   12:10   53.1    23    4.8   172     10.2   707.2    0.00     641    999.0    -0.2
 303   12:20   54.4    22    3.8   146      9.3   707.1    0.00     634    999.0    -0.4
 303   12:30   53.4    22    6.5   128     15.6   707.0    0.00     624    999.0    -0.3
 303   12:40   54.0    22    4.1   145     11.0   707.1    0.00     612    999.0    -0.4
 303   12:50   53.5    22    5.1   154     12.2   707.0    0.00     598    999.0    -0.4
 303   13:00   52.5    23    6.5   136     11.8   706.9    0.00     583    999.0    -0.2
 303   13:10   53.5    22    4.4   152     10.5   706.9    0.00     567    999.0    -0.3
 303   13:20   53.2    22    6.8   138     13.6   706.9    0.00     549    999.0    -0.5
 303   13:30   52.2    23    5.7   142     10.6   706.8    0.00     529    999.0    -0.1
 303   13:40   52.5    23    6.4   135     11.8   706.8    0.00     509    999.0    -0.2
 303   13:50   52.7    23    5.7   134     11.3   706.8    0.00     487    999.0    -0.2
 303   14:00   52.3    23    6.8   140     11.9   706.8    0.00     463    999.0    -0.3
 303   14:10   51.7    24    6.3   144     12.4   706.6    0.00     438    999.0    -0.2
 303   14:20   52.1    23    4.9   151      9.6   706.8    0.00     412    999.0    -0.2
 303   14:30   51.9    24    5.1   139      9.8   706.8    0.00     376    999.0    -0.2
 303   14:40   51.0    24    4.9   145      8.8   706.8    0.00     353    999.0    -0.3
 303   14:50   50.9    24    5.1   146      9.7   706.6    0.00     316    999.0    -0.2
 303   15:00   50.0    25    7.4   136     13.5   706.6    0.00     286    999.0    -0.3
 303   15:10   50.4    25    5.2   146      9.1   706.5    0.00     263    999.0    -0.2
 303   15:20   49.9    25    5.2   145     11.0   706.5    0.00     237    999.0    -0.3
 303   15:30   48.8    26    5.9   137     10.6   706.5    0.00     210    999.0    -0.2
 303   15:40   48.0    26    7.0   136     12.2   706.4    0.00     182    999.0    -0.2
 303   15:50   47.3    27    7.2   134     10.1   706.5    0.00     146    999.0    -0.1
 303   16:00   46.8    27    6.6   132     11.3   706.4    0.00     117    999.0    -0.2
 303   16:10   45.6    29    6.2   130      9.3   706.3    0.00      27    999.0    -0.3
 303   16:20   44.4    30    5.6   133      9.9   706.3    0.00      12    999.0    -0.3
 303   16:30   42.4    32    4.3   146      8.6   706.3    0.00       9    999.0    -0.6
 303   16:40   40.3    34    4.2   152      6.9   706.3    0.00       5    999.0    -0.6
 303   16:50   40.0    34    3.8   146      7.5   706.3    0.00       3    999.0    -0.6
 303   17:00   39.4    35    2.9   169      4.0   706.5    0.00       1    999.0    -0.7
 303   17:10   38.2    36    2.0   157      4.9   706.5    0.00       0    999.0    -0.7
 303   17:20   36.7    38    1.2   189      3.7   706.5    0.00       0    999.0    -0.6
 303   17:30   36.7    38    2.2   162      3.8   706.3    0.00       0    999.0    -0.6
 303   17:40   34.7    40    1.8   126      3.3   706.4    0.00       0    999.0    -0.8
 303   17:50   34.3    40    1.7   212      7.0   706.4    0.00       0    999.0    -0.7
 303   18:00   33.5    40    1.5   213      7.2   706.4    0.00       0    999.0    -0.7
 303   18:10   32.9    42    1.3   238      3.7   706.5    0.00       0    999.0    -0.6
 303   18:20   32.4    43    0.2   220      1.2   706.5    0.00       0    999.0    -0.7
 303   18:30   32.3    44    0.2   204      1.4   706.4    0.00       0    999.0    -0.6
 303   18:40   32.3    44    1.0   140      3.3   706.5    0.00       0    999.0    -0.5
 303   18:50   31.5    43    1.8   197      3.9   706.4    0.00       0    999.0    -0.7
 303   19:00   30.8    45    1.3   163      3.7   706.5    0.00       0    999.0    -0.6
 303   19:10   31.3    45    1.7   154      3.7   706.4    0.00       0    999.0    -0.6
 303   19:20   31.5    45    1.5   133      3.9   706.6    0.00       0    999.0    -0.7
 303   19:30   30.6    46    0.1   180      0.9   706.6    0.00       0    999.0    -0.5
 303   19:40   30.5    48    1.0   218      4.8   706.5    0.00       0    999.0    -0.5
 303   19:50   31.3    46    1.2   218      4.9   706.5    0.00       0    999.0    -0.6
 303   20:00   31.7    45    2.5   175      4.7   706.5    0.00       0    999.0    -0.7
 303   20:10   31.3    45    1.4   153      5.5   706.5    0.00       0    999.0    -0.7
 303   20:20   30.3    46    0.9   232      5.4   706.5    0.00       0    999.0    -0.6
 303   20:30   29.4    47    0.8   240      2.8   706.6    0.00       0    999.0    -0.5
 303   20:40   28.5    49    0.1   230      0.9   706.5    0.00       0    999.0    -0.6
 303   20:50   28.3    50    0.2   217      1.5   706.7    0.00       0    999.0    -0.3
 303   21:00   29.4    48    0.8   213      3.4   706.6    0.00       0    999.0    -0.6
 303   21:10   28.2    50    0.6   198      2.1   706.6    0.00       0    999.0    -0.5
 303   21:20   28.6    50    0.1   209      0.7   706.5    0.00       0    999.0    -0.6
 303   21:30   28.2    51    0.6   147      2.7   706.6    0.00       0    999.0    -0.5
 303   21:40   28.3    51    0.6   196      2.2   706.5    0.00       0    999.0    -0.5
 303   21:50   28.9    49    1.2   154      3.4   706.6    0.00       0    999.0    -0.5
 303   22:00   29.1    48    1.1   232      3.7   706.6    0.00       0    999.0    -0.5
 303   22:10   29.4    45    2.0   210      4.3   706.7    0.00       0    999.0    -0.7
 303   22:20   28.8    46    0.0   193      0.5   706.4    0.00       0    999.0    -0.5
 303   22:30   29.0    43    0.7   145      2.3   706.3    0.00       0    999.0    -0.5
 303   22:40   27.7    45    0.8   236      3.5   706.3    0.00       0    999.0    -0.6
 303   22:50   27.4    45    0.2   219      2.0   706.4    0.00       0    999.0    -0.4
 303   23:00   27.7    44    0.6   194      4.1   706.3    0.00       0    999.0    -0.5
 303   23:10   27.6    45    0.7   185      2.9   706.2    0.00       0    999.0    -0.5
 303   23:20   27.6    44    1.1   137      2.6   706.1    0.00       0    999.0    -0.6
 303   23:30   27.0    47    0.9   236      3.6   706.1    0.00       0    999.0    -0.6
 303   23:40   26.4    48    0.0   182      0.7   706.1    0.00       0    999.0    -0.4
 303   23:50   26.9    47    1.2   127      2.9   706.0    0.00       0    999.0    -0.5

Return to Crooked Creek Research Lab graphs page.


Western Regional Climate Center,wrcc@dri.edu